Time;durP1;ratioP1;P1;durP2;ratioP2;P2;SDS_P1;SDS_P2;PMS_P1;PMS_P2;Temp;Humidity;BMP_temperature;BMP_pressure;BME280_temperature;BME280_humidity;BME280_pressure;Samples;Min_cycle;Max_cycle;Signal;HPM_P1;HPM_P2
2024/03/14 00:01:36;;;;;;;12.63;6.65;;;;;;;;;;5085974;28;20090;-56
2024/03/14 00:04:03;;;;;;;11.93;6.65;;;;;;;;;;5087042;28;20473;-56
2024/03/14 00:06:30;;;;;;;17.67;6.95;;;;;;;;;;5082337;28;20021;-56
2024/03/14 00:08:56;;;;;;;11.95;7.13;;;;;;;;;;5080730;28;20028;-56
2024/03/14 00:11:22;;;;;;;15.15;7.20;;;;;;;;;;5084304;28;20082;-56
2024/03/14 00:13:48;;;;;;;10.38;6.75;;;;;;;;;;5078572;28;20391;-56
2024/03/14 00:16:15;;;;;;;13.98;8.00;;;;;;;;;;5074536;28;20032;-56
2024/03/14 00:18:41;;;;;;;11.57;6.50;;;;;;;;;;5078870;28;20411;-56
2024/03/14 00:21:09;;;;;;;12.30;6.88;;;;;;;;;;5074435;28;20032;-56
2024/03/14 00:23:36;;;;;;;13.82;7.40;;;;;;;;;;5088683;28;20862;-56
2024/03/14 00:26:03;;;;;;;15.70;7.32;;;;;;;;;;5088175;28;20056;-56
2024/03/14 00:28:30;;;;;;;14.10;7.22;;;;;;;;;;5089858;28;20487;-60
2024/03/14 00:30:58;;;;;;;12.02;7.75;;;;;;;;;;5086467;28;20475;-60
2024/03/14 00:33:24;;;;;;;15.05;7.43;;;;;;;;;;5081769;28;20028;-60
2024/03/14 00:35:50;;;;;;;14.10;8.05;;;;;;;;;;5076671;28;20020;-61
2024/03/14 00:38:16;;;;;;;14.55;7.40;;;;;;;;;;5086330;28;20032;-59
2024/03/14 00:40:43;;;;;;;15.02;8.50;;;;;;;;;;5098530;28;20039;-60
2024/03/14 00:43:09;;;;;;;15.60;8.30;;;;;;;;;;5091600;28;20132;-60
2024/03/14 00:45:36;;;;;;;15.15;8.48;;;;;;;;;;5084836;28;20407;-60
2024/03/14 00:48:02;;;;;;;13.68;7.95;;;;;;;;;;5072502;28;20017;-60
2024/03/14 00:50:28;;;;;;;14.93;8.82;;;;;;;;;;5079493;28;20063;-60
2024/03/14 00:52:54;;;;;;;15.60;8.10;;;;;;;;;;5091683;28;20043;-60
2024/03/14 00:55:20;;;;;;;16.83;8.70;;;;;;;;;;5085751;28;20488;-60
2024/03/14 00:57:46;;;;;;;15.00;8.75;;;;;;;;;;5090980;28;20025;-59
2024/03/14 01:00:12;;;;;;;16.90;8.43;;;;;;;;;;5086056;28;20062;-60
2024/03/14 01:02:38;;;;;;;18.17;9.18;;;;;;;;;;5091315;28;20491;-60
2024/03/14 01:05:05;;;;;;;16.33;8.43;;;;;;;;;;5089978;28;20031;-60
2024/03/14 01:07:32;;;;;;;14.60;8.35;;;;;;;;;;5088275;28;20077;-60
2024/03/14 01:09:58;;;;;;;16.13;8.88;;;;;;;;;;5075368;28;20555;-60
2024/03/14 01:12:24;;;;;;;16.05;8.68;;;;;;;;;;5092520;28;20122;-59
2024/03/14 01:14:50;;;;;;;14.13;9.30;;;;;;;;;;5073375;28;20924;-60
2024/03/14 01:17:16;;;;;;;17.95;9.52;;;;;;;;;;5074220;28;20445;-60
2024/03/14 01:19:42;;;;;;;20.67;9.55;;;;;;;;;;5079609;28;20055;-60
2024/03/14 01:22:08;;;;;;;16.17;9.35;;;;;;;;;;5081477;28;20028;-60
2024/03/14 01:24:37;;;;;;;18.77;9.23;;;;;;;;;;5072657;28;20385;-60
2024/03/14 01:27:03;;;;;;;18.77;10.07;;;;;;;;;;5091337;28;20100;-60
2024/03/14 01:29:29;;;;;;;16.33;9.23;;;;;;;;;;5093634;28;20031;-60
2024/03/14 01:31:55;;;;;;;18.85;9.30;;;;;;;;;;5094444;28;20035;-59
2024/03/14 01:34:22;;;;;;;19.17;10.52;;;;;;;;;;5083123;28;20490;-60
2024/03/14 01:36:48;;;;;;;15.25;8.93;;;;;;;;;;5077585;28;20048;-59
2024/03/14 01:39:14;;;;;;;18.60;9.95;;;;;;;;;;5080896;28;20031;-56
2024/03/14 01:41:41;;;;;;;19.30;10.85;;;;;;;;;;5087945;28;20041;-57
2024/03/14 01:44:07;;;;;;;16.65;9.48;;;;;;;;;;5079429;28;20090;-56
2024/03/14 01:46:33;;;;;;;16.73;9.82;;;;;;;;;;5088846;28;20541;-57
2024/03/14 01:49:00;;;;;;;17.63;9.63;;;;;;;;;;5089636;28;20035;-57
2024/03/14 01:51:26;;;;;;;18.08;10.50;;;;;;;;;;5075157;28;20111;-56
2024/03/14 01:53:53;;;;;;;17.23;10.18;;;;;;;;;;5087160;28;20058;-56
2024/03/14 01:56:21;;;;;;;18.35;9.80;;;;;;;;;;5091897;28;20077;-57
2024/03/14 01:58:47;;;;;;;17.83;10.23;;;;;;;;;;5090820;28;20036;-57
2024/03/14 02:01:13;;;;;;;18.55;10.10;;;;;;;;;;5079901;28;20024;-60
2024/03/14 02:03:41;;;;;;;22.08;10.55;;;;;;;;;;5083074;28;20115;-60
2024/03/14 02:06:15;;;;;;;19.27;9.75;;;;;;;;;;5082709;28;20019;-59
2024/03/14 02:08:41;;;;;;;19.48;10.10;;;;;;;;;;5079079;28;20341;-59
2024/03/14 02:11:07;;;;;;;18.55;10.90;;;;;;;;;;5086246;28;20090;-59
2024/03/14 02:13:33;;;;;;;16.83;10.00;;;;;;;;;;5089460;28;20423;-60
2024/03/14 02:15:59;;;;;;;18.50;10.05;;;;;;;;;;5094434;28;20078;-60
2024/03/14 02:18:25;;;;;;;18.30;9.77;;;;;;;;;;5091249;28;20044;-60
2024/03/14 02:20:51;;;;;;;18.98;10.30;;;;;;;;;;5080328;28;20027;-59
2024/03/14 02:23:17;;;;;;;20.42;10.23;;;;;;;;;;5089979;28;20023;-60
2024/03/14 02:25:43;;;;;;;16.48;9.32;;;;;;;;;;5078172;28;20040;-60
2024/03/14 02:28:09;;;;;;;18.98;9.90;;;;;;;;;;5084688;28;20444;-58
2024/03/14 02:30:35;;;;;;;15.50;8.50;;;;;;;;;;5092607;28;20099;-60
2024/03/14 02:33:01;;;;;;;17.35;10.45;;;;;;;;;;5086575;28;20024;-60
2024/03/14 02:35:27;;;;;;;18.77;10.43;;;;;;;;;;5078901;28;20028;-60
2024/03/14 02:37:53;;;;;;;18.27;10.25;;;;;;;;;;5084559;28;20028;-60
2024/03/14 02:40:19;;;;;;;19.92;10.13;;;;;;;;;;5080081;28;20488;-60
2024/03/14 02:42:47;;;;;;;19.60;10.40;;;;;;;;;;5073741;28;20032;-60
2024/03/14 02:45:14;;;;;;;21.30;11.77;;;;;;;;;;5083582;28;20476;-60
2024/03/14 02:47:40;;;;;;;18.58;10.05;;;;;;;;;;5094163;28;20024;-60
2024/03/14 02:50:09;;;;;;;22.17;10.80;;;;;;;;;;5093569;28;20110;-60
2024/03/14 02:52:35;;;;;;;18.40;10.70;;;;;;;;;;5087947;28;20035;-60
2024/03/14 02:55:01;;;;;;;18.77;10.70;;;;;;;;;;5089210;28;20043;-60
2024/03/14 02:57:27;;;;;;;18.02;9.88;;;;;;;;;;5075030;28;20028;-60
2024/03/14 02:59:53;;;;;;;18.83;9.98;;;;;;;;;;5085052;28;20086;-60
2024/03/14 03:02:19;;;;;;;18.67;9.38;;;;;;;;;;5073429;28;20032;-60
2024/03/14 03:04:45;;;;;;;18.70;10.10;;;;;;;;;;5079056;28;20472;-59
2024/03/14 03:07:12;;;;;;;17.88;10.52;;;;;;;;;;5088377;28;20111;-58
2024/03/14 03:09:38;;;;;;;21.50;11.07;;;;;;;;;;5088458;28;20051;-58
2024/03/14 03:12:04;;;;;;;19.48;10.68;;;;;;;;;;5081879;28;20113;-58
2024/03/14 03:14:31;;;;;;;20.65;10.30;;;;;;;;;;5083963;28;20024;-59
2024/03/14 03:16:57;;;;;;;20.20;10.48;;;;;;;;;;5090643;28;20482;-58
2024/03/14 03:19:23;;;;;;;22.55;10.95;;;;;;;;;;5079810;28;20041;-59
2024/03/14 03:21:49;;;;;;;18.90;10.38;;;;;;;;;;5074794;28;20497;-58
2024/03/14 03:24:15;;;;;;;20.23;9.95;;;;;;;;;;5085106;28;20443;-58
2024/03/14 03:26:41;;;;;;;18.27;9.85;;;;;;;;;;5075559;28;20369;-58
2024/03/14 03:29:07;;;;;;;20.15;10.07;;;;;;;;;;5083966;28;20086;-57
2024/03/14 03:31:34;;;;;;;23.60;10.60;;;;;;;;;;5073436;28;20036;-58
2024/03/14 03:34:01;;;;;;;18.30;9.23;;;;;;;;;;5076125;28;20035;-58
2024/03/14 03:36:29;;;;;;;19.95;10.95;;;;;;;;;;5086140;28;20051;-60
2024/03/14 03:38:56;;;;;;;23.27;11.80;;;;;;;;;;5086113;28;20047;-59
2024/03/14 03:41:23;;;;;;;20.65;10.30;;;;;;;;;;5084870;28;20028;-58
2024/03/14 03:43:50;;;;;;;19.67;9.57;;;;;;;;;;5091215;28;20027;-58
2024/03/14 03:46:16;;;;;;;22.40;10.60;;;;;;;;;;5092462;28;20036;-58
2024/03/14 03:48:42;;;;;;;20.23;10.30;;;;;;;;;;5074734;28;20056;-57
2024/03/14 03:51:08;;;;;;;22.70;10.95;;;;;;;;;;5080701;28;20032;-58
2024/03/14 03:53:34;;;;;;;23.75;11.52;;;;;;;;;;5088887;28;20036;-59
2024/03/14 03:56:04;;;;;;;26.27;12.07;;;;;;;;;;5086912;28;20029;-59
2024/03/14 03:58:32;;;;;;;23.15;11.65;;;;;;;;;;5081415;28;20020;-58
2024/03/14 04:01:06;;;;;;;23.02;12.13;;;;;;;;;;5082009;28;20047;-59
2024/03/14 04:03:34;;;;;;;23.92;12.13;;;;;;;;;;5088504;28;20580;-58
2024/03/14 04:06:00;;;;;;;23.00;11.80;;;;;;;;;;5085401;28;20372;-59
2024/03/14 04:08:26;;;;;;;23.33;12.05;;;;;;;;;;5091501;28;20506;-59
2024/03/14 04:10:53;;;;;;;24.05;12.25;;;;;;;;;;5089634;28;20016;-58
2024/03/14 04:13:19;;;;;;;25.42;12.30;;;;;;;;;;5080594;28;20364;-59
2024/03/14 04:15:46;;;;;;;27.15;13.48;;;;;;;;;;5078360;28;20115;-58
2024/03/14 04:18:13;;;;;;;24.23;12.32;;;;;;;;;;5075514;28;20371;-59
2024/03/14 04:20:39;;;;;;;25.35;12.30;;;;;;;;;;5073453;28;20508;-57
2024/03/14 04:23:05;;;;;;;28.95;13.30;;;;;;;;;;5090743;28;20102;-59
2024/03/14 04:25:34;;;;;;;25.92;12.50;;;;;;;;;;5082816;28;20020;-58
2024/03/14 04:28:02;;;;;;;32.00;13.38;;;;;;;;;;5073860;28;20024;-59
2024/03/14 04:30:28;;;;;;;26.95;12.82;;;;;;;;;;5089500;28;20070;-59
2024/03/14 04:32:54;;;;;;;28.95;13.35;;;;;;;;;;5096682;28;20028;-59
2024/03/14 04:35:20;;;;;;;26.05;13.18;;;;;;;;;;5089482;28;20030;-59
2024/03/14 04:37:49;;;;;;;28.45;14.27;;;;;;;;;;5079569;28;20476;-60
2024/03/14 04:40:17;;;;;;;27.83;13.75;;;;;;;;;;5088396;28;20463;-59
2024/03/14 04:42:43;;;;;;;27.80;14.40;;;;;;;;;;5084261;28;20024;-59
2024/03/14 04:45:10;;;;;;;29.60;14.30;;;;;;;;;;5077118;28;20553;-56
2024/03/14 04:47:39;;;;;;;29.45;13.43;;;;;;;;;;5075165;28;20058;-59
2024/03/14 04:50:08;;;;;;;28.23;13.98;;;;;;;;;;5091358;28;20020;-58
2024/03/14 04:52:34;;;;;;;26.70;13.27;;;;;;;;;;5091881;28;20399;-58
2024/03/14 04:55:00;;;;;;;29.80;14.65;;;;;;;;;;5088212;28;20025;-59
2024/03/14 04:57:26;;;;;;;26.35;13.75;;;;;;;;;;5082308;28;20473;-58
2024/03/14 04:59:52;;;;;;;27.50;13.05;;;;;;;;;;5076009;28;20510;-59
2024/03/14 05:02:18;;;;;;;31.08;14.23;;;;;;;;;;5083394;28;20046;-59
2024/03/14 05:04:44;;;;;;;30.92;13.90;;;;;;;;;;5088865;28;20020;-59
2024/03/14 05:07:11;;;;;;;30.15;13.77;;;;;;;;;;5086438;28;20027;-59
2024/03/14 05:09:38;;;;;;;30.55;14.50;;;;;;;;;;5087630;28;20070;-58
2024/03/14 05:12:05;;;;;;;34.72;15.32;;;;;;;;;;5105152;27;20159;-58
2024/03/14 05:14:31;;;;;;;28.67;12.68;;;;;;;;;;5083850;28;20058;-58
2024/03/14 05:16:57;;;;;;;29.63;14.10;;;;;;;;;;5093921;28;20032;-59
2024/03/14 05:19:23;;;;;;;28.48;14.15;;;;;;;;;;5091902;28;20055;-57
2024/03/14 05:21:50;;;;;;;31.05;14.50;;;;;;;;;;5086829;28;20036;-58
2024/03/14 05:24:16;;;;;;;31.40;15.48;;;;;;;;;;5085729;28;20032;-58
2024/03/14 05:26:42;;;;;;;29.27;13.65;;;;;;;;;;5094518;28;20472;-58
2024/03/14 05:29:09;;;;;;;27.73;12.68;;;;;;;;;;5088943;28;20028;-55
2024/03/14 05:31:37;;;;;;;26.67;12.43;;;;;;;;;;5091863;28;20032;-56
2024/03/14 05:34:03;;;;;;;26.23;13.27;;;;;;;;;;5087912;28;20103;-55
2024/03/14 05:36:29;;;;;;;28.42;14.20;;;;;;;;;;5091747;28;20098;-55
2024/03/14 05:38:55;;;;;;;28.08;12.70;;;;;;;;;;5094486;28;20028;-55
2024/03/14 05:41:21;;;;;;;32.97;15.20;;;;;;;;;;5094485;28;20024;-55
2024/03/14 05:43:47;;;;;;;33.70;15.68;;;;;;;;;;5093358;28;20016;-54
2024/03/14 05:46:13;;;;;;;34.38;15.50;;;;;;;;;;5092066;28;20024;-57
2024/03/14 05:48:39;;;;;;;33.28;15.18;;;;;;;;;;5094089;28;20020;-55
2024/03/14 05:51:09;;;;;;;29.67;14.52;;;;;;;;;;5092729;28;20134;-56
2024/03/14 05:53:35;;;;;;;30.20;13.88;;;;;;;;;;5093590;28;20039;-56
2024/03/14 05:56:02;;;;;;;29.58;13.20;;;;;;;;;;5094283;28;20032;-56
2024/03/14 05:58:30;;;;;;;31.35;14.43;;;;;;;;;;5085575;28;20024;-56
2024/03/14 06:00:56;;;;;;;33.75;15.32;;;;;;;;;;5091218;28;20034;-55
2024/03/14 06:03:22;;;;;;;28.50;14.02;;;;;;;;;;5089444;28;20472;-54
2024/03/14 06:05:52;;;;;;;31.90;14.90;;;;;;;;;;5088376;28;20021;-54
2024/03/14 06:08:19;;;;;;;28.15;14.38;;;;;;;;;;5087777;28;20025;-55
2024/03/14 06:10:45;;;;;;;30.67;14.52;;;;;;;;;;5089651;28;20024;-55
2024/03/14 06:13:11;;;;;;;33.47;15.05;;;;;;;;;;5089335;28;20111;-56
2024/03/14 06:15:38;;;;;;;27.88;13.63;;;;;;;;;;5093983;28;20477;-53
2024/03/14 06:18:05;;;;;;;35.65;18.25;;;;;;;;;;5085710;28;20107;-56
2024/03/14 06:20:32;;;;;;;35.28;15.63;;;;;;;;;;5086765;28;20044;-54
2024/03/14 06:23:01;;;;;;;34.00;14.30;;;;;;;;;;5080917;28;20028;-55
2024/03/14 06:25:27;;;;;;;31.35;14.75;;;;;;;;;;5089766;28;20027;-57
2024/03/14 06:27:53;;;;;;;32.58;14.85;;;;;;;;;;5090271;28;20115;-56
2024/03/14 06:30:19;;;;;;;33.30;15.43;;;;;;;;;;5093850;28;20028;-55
2024/03/14 06:32:45;;;;;;;36.35;14.40;;;;;;;;;;5094510;28;20570;-54
2024/03/14 06:35:12;;;;;;;35.78;16.30;;;;;;;;;;5093807;28;20038;-56
2024/03/14 06:37:38;;;;;;;39.35;16.45;;;;;;;;;;5093139;28;20039;-55
2024/03/14 06:40:05;;;;;;;32.85;14.95;;;;;;;;;;5093642;28;20031;-56
2024/03/14 06:42:32;;;;;;;32.17;15.35;;;;;;;;;;5091197;28;20039;-56
2024/03/14 06:44:58;;;;;;;32.40;14.65;;;;;;;;;;5081518;28;20556;-55
2024/03/14 06:47:24;;;;;;;37.00;16.30;;;;;;;;;;5081447;28;20052;-55
2024/03/14 06:49:51;;;;;;;33.85;15.25;;;;;;;;;;5093290;28;20476;-57
2024/03/14 06:52:17;;;;;;;32.55;15.50;;;;;;;;;;5093036;28;20433;-55
2024/03/14 06:54:43;;;;;;;36.92;15.70;;;;;;;;;;5093978;28;20024;-55
2024/03/14 06:57:09;;;;;;;33.92;16.48;;;;;;;;;;5093490;28;20507;-53
2024/03/14 06:59:37;;;;;;;38.60;16.42;;;;;;;;;;5084616;28;20075;-55
2024/03/14 07:02:03;;;;;;;34.30;15.57;;;;;;;;;;5093161;28;20028;-55
2024/03/14 07:04:33;;;;;;;39.60;17.38;;;;;;;;;;5092602;28;20047;-55
2024/03/14 07:06:59;;;;;;;34.10;15.40;;;;;;;;;;5091564;28;20028;-54
2024/03/14 07:09:27;;;;;;;33.60;15.90;;;;;;;;;;5092946;28;20036;-55
2024/03/14 07:11:53;;;;;;;37.72;16.35;;;;;;;;;;5092806;28;20483;-53
2024/03/14 07:14:19;;;;;;;33.45;14.63;;;;;;;;;;5089924;28;20365;-56
2024/03/14 07:16:45;;;;;;;31.17;16.05;;;;;;;;;;5087338;28;20055;-54
2024/03/14 07:19:17;;;;;;;35.67;15.93;;;;;;;;;;5089881;28;20040;-55
2024/03/14 07:21:44;;;;;;;34.80;16.20;;;;;;;;;;5092652;28;20040;-54
2024/03/14 07:24:10;;;;;;;36.28;15.68;;;;;;;;;;5092123;28;20024;-55
2024/03/14 07:26:39;;;;;;;32.05;15.27;;;;;;;;;;5092517;28;20381;-54
2024/03/14 07:29:06;;;;;;;34.85;15.82;;;;;;;;;;5083638;28;20051;-56
2024/03/14 07:31:32;;;;;;;33.05;16.23;;;;;;;;;;5084942;28;20031;-57
2024/03/14 07:33:58;;;;;;;38.83;17.48;;;;;;;;;;5098757;28;20368;-55
2024/03/14 07:36:29;;;;;;;39.10;16.17;;;;;;;;;;5088754;28;20023;-55
2024/03/14 07:38:56;;;;;;;33.95;15.30;;;;;;;;;;5074704;28;20334;-54
2024/03/14 07:41:23;;;;;;;31.90;14.70;;;;;;;;;;5081561;28;20059;-55
2024/03/14 07:43:53;;;;;;;32.17;15.75;;;;;;;;;;5091529;28;20063;-55
2024/03/14 07:46:19;;;;;;;36.45;16.20;;;;;;;;;;5092145;28;20107;-55
2024/03/14 07:48:48;;;;;;;35.47;14.93;;;;;;;;;;5092519;28;20535;-60
2024/03/14 07:51:14;;;;;;;35.42;16.10;;;;;;;;;;5092402;28;20036;-60
2024/03/14 07:53:40;;;;;;;35.90;15.98;;;;;;;;;;5091753;28;20032;-60
2024/03/14 07:56:09;;;;;;;32.63;15.25;;;;;;;;;;5091580;28;20039;-60
2024/03/14 07:58:38;;;;;;;30.33;15.02;;;;;;;;;;5090812;28;20119;-59
2024/03/14 08:01:09;;;;;;;33.10;15.73;;;;;;;;;;5081976;28;20031;-60
2024/03/14 08:03:42;;;;;;;37.95;17.27;;;;;;;;;;5091752;28;20032;-60
2024/03/14 08:06:10;;;;;;;33.08;15.40;;;;;;;;;;5092032;28;20031;-60
2024/03/14 08:08:36;;;;;;;34.05;15.75;;;;;;;;;;5092054;28;20097;-60
2024/03/14 08:11:06;;;;;;;33.35;15.55;;;;;;;;;;5091811;28;20546;-60
2024/03/14 08:13:33;;;;;;;34.13;15.57;;;;;;;;;;5091615;28;20035;-60
2024/03/14 08:16:08;;;;;;;36.28;16.27;;;;;;;;;;5086835;28;20131;-60
2024/03/14 08:18:41;;;;;;;35.17;15.65;;;;;;;;;;5085226;28;20519;-60
2024/03/14 08:21:07;;;;;;;;;;;;;;;;;;5091726;28;20114;-60
2024/03/14 08:23:34;;;;;;;34.55;14.65;;;;;;;;;;5091126;28;20027;-60
2024/03/14 08:26:00;;;;;;;29.30;15.00;;;;;;;;;;5091226;28;20498;-60
2024/03/14 08:28:26;;;;;;;33.67;15.10;;;;;;;;;;5091490;28;20655;-60
2024/03/14 08:30:52;;;;;;;32.22;15.15;;;;;;;;;;5089523;28;20431;-60
2024/03/14 08:33:18;;;;;;;34.05;14.82;;;;;;;;;;5090759;28;20047;-60
2024/03/14 08:35:45;;;;;;;28.52;14.85;;;;;;;;;;5090659;28;20020;-60
2024/03/14 08:38:15;;;;;;;30.55;15.30;;;;;;;;;;5091505;28;20024;-60
2024/03/14 08:40:41;;;;;;;28.73;13.27;;;;;;;;;;5091101;28;20491;-60
2024/03/14 08:43:07;;;;;;;27.58;14.02;;;;;;;;;;5092157;28;20475;-60
2024/03/14 08:45:36;;;;;;;27.77;14.25;;;;;;;;;;5079957;28;20040;-60
2024/03/14 08:48:07;;;;;;;25.88;13.48;;;;;;;;;;5091541;28;20027;-61
2024/03/14 08:50:34;;;;;;;27.65;14.70;;;;;;;;;;5081050;28;20031;-60
2024/03/14 08:53:00;;;;;;;26.13;13.40;;;;;;;;;;5090762;28;20447;-60
2024/03/14 08:55:39;;;;;;;26.33;13.23;;;;;;;;;;5090181;28;20028;-59
2024/03/14 08:58:08;;;;;;;23.23;12.95;;;;;;;;;;5086250;28;20058;-58
2024/03/14 09:00:34;;;;;;;26.65;12.68;;;;;;;;;;5085068;28;20085;-58
2024/03/14 09:03:00;;;;;;;28.45;13.63;;;;;;;;;;5090834;28;20032;-58
2024/03/14 09:05:27;;;;;;;25.90;13.48;;;;;;;;;;5090739;28;20031;-57
2024/03/14 09:07:54;;;;;;;24.02;12.55;;;;;;;;;;5091356;28;20732;-58
2024/03/14 09:10:23;;;;;;;23.80;13.82;;;;;;;;;;5090832;28;20024;-58
2024/03/14 09:12:53;;;;;;;25.00;11.95;;;;;;;;;;5090592;28;20028;-58
2024/03/14 09:15:20;;;;;;;23.83;12.95;;;;;;;;;;5071815;28;20476;-58
2024/03/14 09:17:46;;;;;;;23.50;11.88;;;;;;;;;;5087430;28;20023;-57
2024/03/14 09:20:16;;;;;;;27.05;12.18;;;;;;;;;;5088879;28;20041;-57
2024/03/14 09:22:44;;;;;;;26.90;13.07;;;;;;;;;;5090504;28;20040;-57
2024/03/14 09:25:14;;;;;;;20.00;11.35;;;;;;;;;;5090802;28;20470;-57
2024/03/14 09:27:42;;;;;;;23.55;12.05;;;;;;;;;;5090737;28;20028;-57
2024/03/14 09:30:08;;;;;;;21.20;11.25;;;;;;;;;;5088454;28;20084;-57
2024/03/14 09:32:35;;;;;;;22.98;11.48;;;;;;;;;;5086295;28;20031;-57
2024/03/14 09:35:01;;;;;;;24.17;11.27;;;;;;;;;;5091081;28;20108;-57
2024/03/14 09:37:27;;;;;;;21.65;11.52;;;;;;;;;;5091036;28;20063;-57
2024/03/14 09:39:57;;;;;;;23.33;11.27;;;;;;;;;;5090958;28;20035;-58
2024/03/14 09:42:25;;;;;;;21.40;10.32;;;;;;;;;;5090505;28;20039;-58
2024/03/14 09:44:51;;;;;;;21.80;11.05;;;;;;;;;;5090904;28;20132;-57
2024/03/14 09:47:22;;;;;;;20.48;11.02;;;;;;;;;;5089984;28;20070;-58
2024/03/14 09:49:51;;;;;;;20.45;10.90;;;;;;;;;;5094326;28;20495;-57
2024/03/14 09:52:18;;;;;;;18.48;9.80;;;;;;;;;;5094005;28;20039;-58
2024/03/14 09:54:44;;;;;;;18.65;9.77;;;;;;;;;;5094691;28;20107;-57
2024/03/14 09:57:12;;;;;;;19.92;10.30;;;;;;;;;;5094382;28;20103;-57
2024/03/14 09:59:37;;;;;;;19.50;9.85;;;;;;;;;;5094266;28;20077;-57
2024/03/14 10:02:06;;;;;;;18.08;9.82;;;;;;;;;;5092576;28;20036;-57
2024/03/14 10:04:32;;;;;;;18.50;9.88;;;;;;;;;;5094537;28;20032;-57
2024/03/14 10:06:59;;;;;;;18.92;9.15;;;;;;;;;;5094309;28;20031;-57
2024/03/14 10:09:26;;;;;;;17.83;9.82;;;;;;;;;;5094437;28;20028;-58
2024/03/14 10:11:58;;;;;;;19.23;9.45;;;;;;;;;;5094046;28;20058;-57
2024/03/14 10:14:24;;;;;;;17.52;8.90;;;;;;;;;;5094079;28;20047;-57
2024/03/14 10:16:50;;;;;;;16.55;8.93;;;;;;;;;;5092542;28;20391;-58
2024/03/14 10:19:17;;;;;;;15.20;8.82;;;;;;;;;;5097254;28;20059;-57
2024/03/14 10:21:43;;;;;;;15.90;8.52;;;;;;;;;;5093910;28;20116;-57
2024/03/14 10:24:09;;;;;;;19.35;9.75;;;;;;;;;;5093565;28;20454;-57
2024/03/14 10:26:37;;;;;;;17.02;8.73;;;;;;;;;;5093636;28;20047;-58
2024/03/14 10:29:03;;;;;;;18.08;8.93;;;;;;;;;;5093853;28;20035;-57
2024/03/14 10:31:29;;;;;;;12.88;7.72;;;;;;;;;;5090813;28;20027;-57
2024/03/14 10:33:55;;;;;;;11.95;6.75;;;;;;;;;;5093528;28;20016;-57
2024/03/14 10:36:22;;;;;;;13.98;7.55;;;;;;;;;;5093720;28;20046;-57
2024/03/14 10:38:50;;;;;;;13.15;7.22;;;;;;;;;;5093714;28;20430;-57
2024/03/14 10:41:17;;;;;;;16.98;9.10;;;;;;;;;;5093431;28;20579;-56
2024/03/14 10:43:46;;;;;;;12.43;6.57;;;;;;;;;;5093324;28;20027;-56
2024/03/14 10:46:13;;;;;;;14.00;7.82;;;;;;;;;;5092692;28;20024;-57
2024/03/14 10:48:44;;;;;;;12.07;5.95;;;;;;;;;;5093403;28;20024;-58
2024/03/14 10:51:10;;;;;;;14.57;6.70;;;;;;;;;;5092115;28;20059;-57
2024/03/14 10:53:37;;;;;;;10.60;6.03;;;;;;;;;;5091424;28;20020;-57
2024/03/14 10:56:03;;;;;;;14.73;6.32;;;;;;;;;;5093621;28;20099;-58
2024/03/14 10:58:30;;;;;;;17.25;6.32;;;;;;;;;;5092209;28;20020;-58
2024/03/14 11:00:56;;;;;;;10.60;5.93;;;;;;;;;;5089503;28;20036;-57
2024/03/14 11:03:22;;;;;;;12.40;5.68;;;;;;;;;;5089444;28;20028;-58
2024/03/14 11:05:50;;;;;;;12.90;6.13;;;;;;;;;;5093343;28;20045;-57
2024/03/14 11:08:17;;;;;;;10.02;5.55;;;;;;;;;;5092769;28;20426;-57
2024/03/14 11:10:46;;;;;;;10.88;5.57;;;;;;;;;;5093174;28;20027;-57
2024/03/14 11:13:27;;;;;;;11.43;5.82;;;;;;;;;;5092255;28;20039;-57
2024/03/14 11:15:54;;;;;;;10.95;5.80;;;;;;;;;;5092175;28;20055;-56
2024/03/14 11:18:22;;;;;;;11.23;5.68;;;;;;;;;;5096274;28;20032;-56
2024/03/14 11:20:50;;;;;;;10.25;5.80;;;;;;;;;;5092591;28;20051;-59
2024/03/14 11:23:18;;;;;;;8.27;5.10;;;;;;;;;;5092243;28;20032;-57
2024/03/14 11:25:47;;;;;;;12.10;4.90;;;;;;;;;;5092730;28;20144;-57
2024/03/14 11:28:15;;;;;;;8.93;4.97;;;;;;;;;;5092746;28;20048;-57
2024/03/14 11:30:50;;;;;;;9.80;4.88;;;;;;;;;;5091159;28;20537;-57
2024/03/14 11:33:16;;;;;;;6.70;3.95;;;;;;;;;;5076070;28;20125;-56
2024/03/14 11:35:47;;;;;;;7.35;4.55;;;;;;;;;;5086825;28;20483;-57
2024/03/14 11:38:19;;;;;;;5.28;3.50;;;;;;;;;;5091246;28;20036;-57
2024/03/14 11:40:48;;;;;;;7.43;4.68;;;;;;;;;;5092294;28;20387;-57
2024/03/14 11:43:17;;;;;;;7.80;4.45;;;;;;;;;;5082503;28;20506;-57
2024/03/14 11:45:43;;;;;;;9.07;5.15;;;;;;;;;;5092214;28;20505;-57
2024/03/14 11:48:15;;;;;;;5.68;3.60;;;;;;;;;;5089197;28;20030;-57
2024/03/14 11:50:42;;;;;;;7.63;4.38;;;;;;;;;;5092417;28;20468;-56
2024/03/14 11:53:11;;;;;;;7.55;4.43;;;;;;;;;;5091918;28;20486;-56
2024/03/14 11:55:40;;;;;;;7.43;4.65;;;;;;;;;;5087521;28;20027;-56
2024/03/14 11:58:14;;;;;;;8.70;4.45;;;;;;;;;;5092049;28;20052;-56
2024/03/14 12:00:40;;;;;;;8.15;4.53;;;;;;;;;;5092138;28;20153;-56
2024/03/14 12:03:07;;;;;;;6.88;4.32;;;;;;;;;;5090284;28;20127;-58
2024/03/14 12:05:38;;;;;;;6.95;4.28;;;;;;;;;;5092074;28;20020;-58
2024/03/14 12:08:06;;;;;;;7.85;4.55;;;;;;;;;;5091868;28;20027;-59
2024/03/14 12:10:32;;;;;;;8.02;5.03;;;;;;;;;;5091952;28;20543;-58
2024/03/14 12:12:59;;;;;;;8.20;4.93;;;;;;;;;;5087016;28;20495;-59
2024/03/14 12:15:25;;;;;;;7.20;4.43;;;;;;;;;;5092210;28;20384;-58
2024/03/14 12:17:55;;;;;;;6.32;3.80;;;;;;;;;;5089447;28;20387;-58
2024/03/14 12:20:23;;;;;;;8.02;4.50;;;;;;;;;;5091993;28;20123;-57
2024/03/14 12:22:51;;;;;;;9.10;4.60;;;;;;;;;;5091294;28;20028;-58
2024/03/14 12:25:17;;;;;;;10.38;4.80;;;;;;;;;;5091441;28;20023;-57
2024/03/14 12:27:44;;;;;;;8.73;5.07;;;;;;;;;;5091717;28;20024;-58
2024/03/14 12:30:11;;;;;;;6.20;3.88;;;;;;;;;;5091794;28;20035;-58
2024/03/14 12:32:37;;;;;;;7.80;3.95;;;;;;;;;;5089627;28;20498;-58
2024/03/14 12:35:05;;;;;;;13.15;5.07;;;;;;;;;;5088800;28;20028;-58
2024/03/14 12:37:31;;;;;;;8.52;5.03;;;;;;;;;;5085828;28;20072;-58
2024/03/14 12:39:57;;;;;;;7.43;4.72;;;;;;;;;;5091098;28;20035;-57
2024/03/14 12:42:24;;;;;;;8.32;5.22;;;;;;;;;;5091017;28;20028;-57
2024/03/14 12:44:51;;;;;;;9.27;4.85;;;;;;;;;;5091257;28;20487;-58
2024/03/14 12:47:18;;;;;;;7.15;4.53;;;;;;;;;;5090042;28;20027;-58
2024/03/14 12:49:46;;;;;;;9.43;5.15;;;;;;;;;;5080706;28;20073;-58
2024/03/14 12:52:12;;;;;;;6.18;4.10;;;;;;;;;;5090935;28;20119;-58
2024/03/14 12:54:38;;;;;;;9.35;5.65;;;;;;;;;;5086961;28;20047;-58
2024/03/14 12:57:05;;;;;;;8.32;4.75;;;;;;;;;;5087619;28;20489;-58
2024/03/14 12:59:32;;;;;;;6.95;4.25;;;;;;;;;;5088178;28;20522;-58
2024/03/14 13:02:01;;;;;;;8.35;4.65;;;;;;;;;;5085304;28;20035;-57
2024/03/14 13:04:27;;;;;;;9.18;5.28;;;;;;;;;;5085357;28;20020;-57
2024/03/14 13:06:59;;;;;;;9.05;4.95;;;;;;;;;;5091079;28;20101;-57
2024/03/14 13:09:25;;;;;;;9.13;4.97;;;;;;;;;;5072507;28;20407;-57
2024/03/14 13:12:19;;;;;;;12.70;5.57;;;;;;;;;;5088315;28;20024;-57
2024/03/14 13:15:00;;;;;;;9.15;5.53;;;;;;;;;;5090618;28;20096;-57
2024/03/14 13:17:27;;;;;;;9.75;5.22;;;;;;;;;;5090365;28;20032;-58
2024/03/14 13:19:57;;;;;;;9.18;5.18;;;;;;;;;;5089411;28;20398;-57
2024/03/14 13:22:23;;;;;;;9.98;4.60;;;;;;;;;;5090279;28;20040;-57
2024/03/14 13:24:54;;;;;;;9.23;4.90;;;;;;;;;;5087436;28;20391;-57
2024/03/14 13:27:20;;;;;;;7.32;4.25;;;;;;;;;;5093609;28;20111;-57
2024/03/14 13:29:47;;;;;;;6.35;4.32;;;;;;;;;;5092968;28;20099;-57
2024/03/14 13:32:14;;;;;;;8.63;5.15;;;;;;;;;;5083936;28;20024;-56
2024/03/14 13:34:43;;;;;;;9.52;5.13;;;;;;;;;;5092536;28;20051;-57
2024/03/14 13:37:09;;;;;;;9.77;5.32;;;;;;;;;;5091393;28;20032;-59
2024/03/14 13:39:35;;;;;;;6.88;3.83;;;;;;;;;;5093413;28;20027;-59
2024/03/14 13:42:02;;;;;;;8.15;4.43;;;;;;;;;;5090309;28;20055;-59
2024/03/14 13:44:29;;;;;;;7.47;4.10;;;;;;;;;;5090770;28;20385;-59
2024/03/14 13:46:56;;;;;;;8.77;4.78;;;;;;;;;;5086734;28;20414;-60
2024/03/14 13:49:23;;;;;;;7.75;4.45;;;;;;;;;;5091656;28;20099;-59
2024/03/14 13:51:52;;;;;;;9.40;5.05;;;;;;;;;;5088469;28;20122;-60
2024/03/14 13:54:18;;;;;;;10.07;5.20;;;;;;;;;;5081460;28;20090;-59
2024/03/14 13:56:47;;;;;;;7.78;4.63;;;;;;;;;;5092009;28;20531;-59
2024/03/14 13:59:17;;;;;;;5.88;4.05;;;;;;;;;;5094211;28;20016;-59
2024/03/14 14:01:45;;;;;;;11.00;4.72;;;;;;;;;;5088137;28;20033;-60
2024/03/14 14:04:11;;;;;;;7.80;4.13;;;;;;;;;;5087292;28;20027;-59
2024/03/14 14:06:38;;;;;;;8.52;5.03;;;;;;;;;;5089989;28;20032;-59
2024/03/14 14:09:07;;;;;;;6.18;3.88;;;;;;;;;;5092307;28;20024;-59
2024/03/14 14:11:36;;;;;;;8.07;4.30;;;;;;;;;;5089546;28;20024;-60
2024/03/14 14:14:02;;;;;;;10.18;4.30;;;;;;;;;;5093542;28;20525;-60
2024/03/14 14:16:28;;;;;;;5.50;3.53;;;;;;;;;;5092220;28;20028;-58
2024/03/14 14:18:54;;;;;;;6.43;3.53;;;;;;;;;;5092150;28;20601;-59
2024/03/14 14:21:20;;;;;;;5.88;3.35;;;;;;;;;;5084709;28;20037;-60
2024/03/14 14:23:46;;;;;;;6.97;3.58;;;;;;;;;;5092864;28;20071;-60
2024/03/14 14:26:13;;;;;;;14.75;4.22;;;;;;;;;;5093380;28;20054;-59